createdAt,value
2018-12-16T00:01:58.865Z,20.57
2018-12-16T00:04:29.880Z,21.70
2018-12-16T00:07:00.916Z,21.80
2018-12-16T00:09:30.610Z,22.33
2018-12-16T00:11:59.680Z,23.30
2018-12-16T00:14:30.669Z,22.30
2018-12-16T00:16:59.849Z,21.70
2018-12-16T00:19:29.109Z,23.13
2018-12-16T00:21:58.205Z,26.30
2018-12-16T00:24:27.304Z,27.90
2018-12-16T00:27:08.783Z,27.33
2018-12-16T00:29:37.864Z,28.13
2018-12-16T00:32:07.037Z,26.33
2018-12-16T00:34:36.303Z,25.03
2018-12-16T00:37:05.458Z,25.80
2018-12-16T00:39:34.570Z,28.30
2018-12-16T00:42:03.763Z,31.63
2018-12-16T00:44:33.054Z,30.47
2018-12-16T00:47:02.140Z,28.80
2018-12-16T00:49:31.257Z,29.37
2018-12-16T00:52:00.545Z,27.13
2018-12-16T00:54:29.667Z,28.00
2018-12-16T00:56:58.705Z,27.73
2018-12-16T00:59:27.768Z,29.77
2018-12-16T01:01:58.721Z,29.27
2018-12-16T01:04:27.893Z,32.07
2018-12-16T01:06:57.019Z,29.23
2018-12-16T01:09:26.097Z,32.57
2018-12-16T01:11:55.149Z,31.43
2018-12-16T01:14:24.261Z,29.23
2018-12-16T01:16:53.384Z,28.83
2018-12-16T01:19:22.372Z,28.20
2018-12-16T01:21:51.558Z,29.97
2018-12-16T01:24:20.602Z,29.87
2018-12-16T01:26:49.640Z,27.67
2018-12-16T01:29:18.742Z,27.70
2018-12-16T01:31:47.806Z,25.77
2018-12-16T01:34:16.881Z,25.20
2018-12-16T01:36:45.953Z,26.70
2018-12-16T01:39:15.108Z,25.77
2018-12-16T01:41:44.133Z,26.83
2018-12-16T01:44:13.297Z,25.37
2018-12-16T01:46:42.341Z,25.33
2018-12-16T01:49:11.485Z,26.03
2018-12-16T01:51:40.608Z,26.07
2018-12-16T01:54:09.649Z,25.17
2018-12-16T01:56:38.690Z,25.97
2018-12-16T01:59:07.757Z,25.90
2018-12-16T02:01:38.857Z,24.17
2018-12-16T02:04:07.848Z,24.67
2018-12-16T02:06:37.071Z,25.73
2018-12-16T02:09:07.109Z,26.67
2018-12-16T02:11:38.278Z,24.83
2018-12-16T02:14:07.263Z,27.03
2018-12-16T02:16:36.457Z,25.37
2018-12-16T02:19:05.478Z,24.40
2018-12-16T02:21:34.591Z,26.37
2018-12-16T02:24:04.236Z,24.23
2018-12-16T02:26:33.233Z,24.97
2018-12-16T02:29:02.381Z,25.37
2018-12-16T02:31:31.476Z,25.20
2018-12-16T02:34:00.793Z,23.80
2018-12-16T02:36:30.017Z,24.47
2018-12-16T02:38:59.178Z,23.20
2018-12-16T02:41:28.262Z,22.50
2018-12-16T02:43:57.313Z,22.10
2018-12-16T02:46:26.390Z,22.77
2018-12-16T02:48:55.430Z,21.70
2018-12-16T02:51:24.518Z,21.67
2018-12-16T02:53:53.543Z,22.20
2018-12-16T02:56:22.530Z,20.33
2018-12-16T02:58:51.585Z,20.17
2018-12-16T03:01:20.819Z,20.03
2018-12-16T03:03:49.813Z,20.73
2018-12-16T03:06:18.937Z,20.23
2018-12-16T03:08:47.994Z,21.40
2018-12-16T03:11:17.015Z,19.97
2018-12-16T03:13:46.239Z,19.00
2018-12-16T03:16:15.342Z,19.13
2018-12-16T03:18:44.392Z,19.53
2018-12-16T03:21:13.534Z,20.10
2018-12-16T03:23:42.557Z,18.43
2018-12-16T03:26:11.626Z,19.17
2018-12-16T03:28:40.666Z,19.60
2018-12-16T03:31:09.872Z,18.00
2018-12-16T03:33:38.897Z,19.17
2018-12-16T03:36:08.137Z,18.00
2018-12-16T03:38:37.262Z,17.63
2018-12-16T03:41:06.340Z,18.47
2018-12-16T03:43:35.344Z,16.80
2018-12-16T03:46:04.538Z,16.63
2018-12-16T03:48:33.616Z,16.47
2018-12-16T03:51:02.634Z,18.00
2018-12-16T03:53:31.637Z,17.90
2018-12-16T03:56:00.640Z,16.67
2018-12-16T03:58:29.633Z,17.50
2018-12-16T04:00:58.639Z,16.80
2018-12-16T04:03:27.677Z,17.07
2018-12-16T04:05:56.742Z,16.47
2018-12-16T04:08:25.877Z,16.00
2018-12-16T04:10:56.025Z,16.70
2018-12-16T04:13:25.149Z,18.90
2018-12-16T04:15:56.175Z,17.33
2018-12-16T04:18:25.267Z,17.03
2018-12-16T04:20:54.326Z,17.90
2018-12-16T04:23:27.395Z,18.33
2018-12-16T04:25:54.453Z,17.03
2018-12-16T04:28:23.763Z,18.13
2018-12-16T04:30:52.800Z,18.17
2018-12-16T04:33:21.833Z,18.20
2018-12-16T04:35:50.926Z,17.67
2018-12-16T04:38:20.031Z,16.83
2018-12-16T04:40:49.129Z,16.93
2018-12-16T04:43:18.169Z,16.93
2018-12-16T04:45:47.237Z,18.83
2018-12-16T04:48:16.275Z,18.93
2018-12-16T04:50:45.422Z,18.30
2018-12-16T04:53:14.493Z,18.83
2018-12-16T04:55:43.526Z,19.73
2018-12-16T04:58:12.608Z,19.50
2018-12-16T05:00:41.697Z,19.87
2018-12-16T05:03:10.930Z,19.97
2018-12-16T05:05:40.137Z,18.53
2018-12-16T05:08:09.409Z,16.53
2018-12-16T05:10:38.453Z,18.00
2018-12-16T05:13:07.495Z,16.13
2018-12-16T05:15:36.692Z,16.87
2018-12-16T05:18:05.769Z,16.00
2018-12-16T05:20:34.812Z,15.90
2018-12-16T05:23:03.958Z,16.20
2018-12-16T05:25:35.050Z,15.17
2018-12-16T05:28:04.195Z,15.93
2018-12-16T05:30:33.322Z,15.60
2018-12-16T05:33:02.325Z,15.10
2018-12-16T05:35:31.406Z,17.60
2018-12-16T05:38:00.636Z,14.50
2018-12-16T05:40:29.883Z,15.47
2018-12-16T05:42:58.989Z,16.40
2018-12-16T05:45:28.114Z,16.30
2018-12-16T05:47:57.135Z,15.70
2018-12-16T05:50:26.286Z,15.40
2018-12-16T05:52:55.353Z,15.27
2018-12-16T05:55:24.449Z,15.37
2018-12-16T05:57:53.434Z,14.97
2018-12-16T06:00:22.530Z,15.87
2018-12-16T06:02:51.532Z,15.27
2018-12-16T06:05:20.678Z,14.83
2018-12-16T06:07:49.777Z,13.80
2018-12-16T06:10:18.945Z,15.20
2018-12-16T06:12:49.175Z,14.87
2018-12-16T06:15:18.261Z,14.57
2018-12-16T06:17:47.268Z,15.63
2018-12-16T06:20:16.322Z,14.70
2018-12-16T06:22:45.365Z,13.77
2018-12-16T06:25:14.435Z,15.67
2018-12-16T06:27:43.566Z,15.33
2018-12-16T06:30:13.045Z,14.70
2018-12-16T06:32:42.137Z,14.00
2018-12-16T06:35:11.246Z,14.60
2018-12-16T06:37:40.533Z,14.57
2018-12-16T06:40:09.556Z,13.87
2018-12-16T06:42:38.845Z,14.03
2018-12-16T06:45:07.914Z,13.40
2018-12-16T06:47:37.170Z,14.03
2018-12-16T06:50:07.002Z,14.17
2018-12-16T06:52:36.078Z,15.10
2018-12-16T06:55:05.655Z,14.83
2018-12-16T06:57:34.769Z,14.43
2018-12-16T07:00:04.326Z,13.67
2018-12-16T07:02:33.387Z,14.80
2018-12-16T07:05:02.489Z,15.43
2018-12-16T07:07:31.698Z,13.77
2018-12-16T07:10:00.739Z,12.93
2018-12-16T07:12:29.750Z,14.93
2018-12-16T07:14:58.883Z,14.47
2018-12-16T07:17:28.076Z,14.20
2018-12-16T07:19:57.251Z,13.93
2018-12-16T07:22:26.279Z,15.10
2018-12-16T07:24:55.334Z,14.77
2018-12-16T07:27:24.394Z,14.73
2018-12-16T07:29:53.436Z,14.40
2018-12-16T07:32:23.777Z,15.00
2018-12-16T07:34:53.045Z,15.63
2018-12-16T07:37:22.134Z,17.30
2018-12-16T07:39:51.240Z,15.73
2018-12-16T07:42:20.348Z,14.20
2018-12-16T07:44:49.377Z,15.00
2018-12-16T07:47:18.704Z,14.43
2018-12-16T07:49:47.960Z,14.50
2018-12-16T07:52:17.024Z,15.07
2018-12-16T07:54:46.120Z,16.67
2018-12-16T07:57:15.221Z,17.17
2018-12-16T07:59:44.354Z,17.27
2018-12-16T08:02:13.460Z,17.77
2018-12-16T08:04:42.457Z,16.20
2018-12-16T08:07:11.437Z,18.23
2018-12-16T08:09:40.494Z,16.63
2018-12-16T08:12:09.563Z,17.20
2018-12-16T08:14:38.661Z,16.37
2018-12-16T08:17:07.807Z,15.80
2018-12-16T08:19:36.830Z,19.13
2018-12-16T08:22:05.824Z,19.23
2018-12-16T08:24:34.841Z,21.17
2018-12-16T08:27:03.981Z,24.43
2018-12-16T08:29:33.328Z,23.53
2018-12-16T08:32:02.445Z,20.00
2018-12-16T08:34:31.631Z,18.80
2018-12-16T08:37:00.689Z,21.40
2018-12-16T08:39:29.909Z,23.03
2018-12-16T08:41:58.921Z,21.70
2018-12-16T08:44:28.081Z,20.93
2018-12-16T08:46:57.155Z,20.87
2018-12-16T08:49:26.188Z,18.27
2018-12-16T08:51:55.469Z,20.50
2018-12-16T08:54:30.095Z,17.67
2018-12-16T08:56:55.496Z,21.77
2018-12-16T08:59:24.606Z,22.23
2018-12-16T09:01:53.661Z,26.50
2018-12-16T09:04:23.109Z,25.10
2018-12-16T09:06:52.141Z,28.03
2018-12-16T09:09:21.682Z,37.37
2018-12-16T09:11:50.694Z,19.33
2018-12-16T09:14:19.906Z,19.90
2018-12-16T09:16:48.981Z,21.80
2018-12-16T09:19:17.975Z,20.57
2018-12-16T09:21:47.113Z,17.83
2018-12-16T09:24:16.450Z,17.73
2018-12-16T09:26:45.466Z,17.80
2018-12-16T09:29:14.622Z,32.90
2018-12-16T09:31:43.803Z,52.87
2018-12-16T09:34:12.845Z,32.40
2018-12-16T09:36:41.839Z,67.43
2018-12-16T09:39:10.990Z,60.00
2018-12-16T09:41:40.370Z,77.57
2018-12-16T09:44:09.448Z,46.83
2018-12-16T09:46:38.597Z,26.90
2018-12-16T09:49:07.684Z,23.00
2018-12-16T09:51:36.680Z,23.03
2018-12-16T09:54:06.028Z,20.07
2018-12-16T09:56:35.050Z,20.03
2018-12-16T09:59:04.246Z,19.80
2018-12-16T10:01:33.430Z,20.40
2018-12-16T10:04:02.585Z,19.70
2018-12-16T10:06:31.577Z,20.17
2018-12-16T10:09:00.617Z,20.67
2018-12-16T10:11:29.969Z,22.93
2018-12-16T10:13:59.322Z,22.27
2018-12-16T10:16:28.444Z,20.73
2018-12-16T10:18:57.479Z,22.93
2018-12-16T10:21:26.698Z,24.07
2018-12-16T10:23:55.921Z,24.13
2018-12-16T10:26:25.246Z,22.77
2018-12-16T10:28:54.305Z,23.57
2018-12-16T10:31:23.441Z,21.20
2018-12-16T10:33:52.512Z,19.67
2018-12-16T10:36:21.745Z,20.73
2018-12-16T10:38:50.770Z,21.17
2018-12-16T10:41:19.837Z,19.23
2018-12-16T10:43:48.961Z,20.53
2018-12-16T10:46:18.012Z,21.00
2018-12-16T10:48:47.079Z,22.17
2018-12-16T10:51:16.213Z,21.30
2018-12-16T10:53:45.223Z,25.30
2018-12-16T10:56:14.216Z,26.53
2018-12-16T10:58:43.365Z,24.47
2018-12-16T11:01:31.918Z,23.07
2018-12-16T11:04:00.956Z,23.93
2018-12-16T11:06:30.050Z,21.63
2018-12-16T11:08:59.297Z,23.90
2018-12-16T11:11:28.352Z,24.77
2018-12-16T11:13:57.462Z,27.27
2018-12-16T11:16:26.577Z,25.77
2018-12-16T11:18:55.704Z,24.73
2018-12-16T11:21:24.697Z,28.60
2018-12-16T11:23:54.043Z,29.03
2018-12-16T11:26:23.349Z,28.87
2018-12-16T11:28:52.512Z,30.43
2018-12-16T11:31:21.740Z,32.07
2018-12-16T11:33:50.832Z,36.07
2018-12-16T11:36:19.956Z,32.30
2018-12-16T11:38:49.188Z,34.73
2018-12-16T11:41:18.372Z,36.03
2018-12-16T11:43:47.521Z,29.67
2018-12-16T11:46:16.600Z,33.13
2018-12-16T11:48:45.708Z,26.77
2018-12-16T11:51:14.962Z,28.40
2018-12-16T11:53:44.206Z,27.73
2018-12-16T11:56:13.965Z,28.53
2018-12-16T11:58:43.651Z,27.60
2018-12-16T12:01:12.754Z,28.27
2018-12-16T12:03:41.797Z,27.27
2018-12-16T12:06:11.157Z,27.10
2018-12-16T12:08:41.101Z,35.73
2018-12-16T12:11:10.269Z,39.77
2018-12-16T12:13:39.433Z,32.37
2018-12-16T12:16:08.601Z,31.33
2018-12-16T12:18:37.765Z,32.07
2018-12-16T12:21:06.907Z,30.80
2018-12-16T12:23:36.085Z,29.73
2018-12-16T12:26:05.405Z,29.83
2018-12-16T12:28:34.713Z,29.17
2018-12-16T12:31:05.029Z,30.07
2018-12-16T12:33:34.074Z,31.00
2018-12-16T12:36:03.190Z,29.47
2018-12-16T12:38:32.531Z,31.43
2018-12-16T12:41:01.662Z,29.60
2018-12-16T12:43:30.646Z,29.20
2018-12-16T12:45:59.636Z,28.87
2018-12-16T12:48:30.423Z,28.77
2018-12-16T12:50:59.641Z,26.87
2018-12-16T12:53:28.833Z,30.53
2018-12-16T12:55:57.842Z,30.77
2018-12-16T12:58:26.914Z,29.83
2018-12-16T13:00:55.906Z,28.97
2018-12-16T13:03:25.474Z,31.13
2018-12-16T13:05:54.696Z,31.67
2018-12-16T13:08:23.829Z,32.33
2018-12-16T13:10:52.912Z,33.63
2018-12-16T13:13:22.251Z,37.60
2018-12-16T13:15:51.879Z,53.60
2018-12-16T13:18:21.138Z,29.60
2018-12-16T13:20:50.211Z,33.40
2018-12-16T13:23:19.315Z,31.83
2018-12-16T13:25:59.653Z,35.00
2018-12-16T13:28:29.024Z,34.30
2018-12-16T13:30:58.125Z,33.40
2018-12-16T13:33:27.142Z,34.90
2018-12-16T13:35:56.165Z,37.10
2018-12-16T13:38:25.222Z,40.20
2018-12-16T13:40:54.306Z,36.33
2018-12-16T13:43:23.635Z,39.67
2018-12-16T13:45:52.741Z,37.40
2018-12-16T13:48:21.817Z,36.63
2018-12-16T13:50:50.957Z,36.80
2018-12-16T13:53:20.211Z,38.70
2018-12-16T13:55:49.775Z,32.17
2018-12-16T13:58:19.094Z,37.17
2018-12-16T14:00:48.154Z,42.07
2018-12-16T14:03:17.461Z,34.87
2018-12-16T14:05:47.038Z,36.27
2018-12-16T14:08:16.250Z,32.57
2018-12-16T14:10:45.429Z,37.37
2018-12-16T14:13:14.556Z,32.70
2018-12-16T14:15:43.817Z,32.03
2018-12-16T14:18:13.030Z,38.00
2018-12-16T14:20:42.051Z,38.63
2018-12-16T14:23:11.211Z,47.60
2018-12-16T14:25:40.214Z,36.53
2018-12-16T14:28:09.336Z,37.53
2018-12-16T14:30:38.632Z,35.13
2018-12-16T14:33:08.616Z,32.20
2018-12-16T14:35:37.671Z,32.33
2018-12-16T14:38:07.363Z,32.63
2018-12-16T14:40:36.444Z,33.50
2018-12-16T14:43:05.601Z,34.83
2018-12-16T14:45:34.787Z,33.57
2018-12-16T14:48:03.852Z,31.70
2018-12-16T14:50:33.835Z,31.60
2018-12-16T14:53:02.837Z,35.60
2018-12-16T14:55:32.112Z,33.83
2018-12-16T14:58:01.163Z,40.60
2018-12-16T15:00:30.203Z,197.83
2018-12-16T15:02:59.215Z,109.30
2018-12-16T15:05:28.397Z,81.37
2018-12-16T15:07:58.501Z,67.30
2018-12-16T15:10:27.555Z,46.50
2018-12-16T15:12:58.069Z,44.53
2018-12-16T15:15:28.193Z,47.60
2018-12-16T15:17:57.344Z,41.43
2018-12-16T15:20:26.454Z,42.87
2018-12-16T15:22:55.581Z,34.07
2018-12-16T15:25:24.676Z,39.43
2018-12-16T15:27:53.771Z,39.57
2018-12-16T15:30:22.897Z,43.70
2018-12-16T15:32:52.024Z,39.93
2018-12-16T15:35:21.125Z,41.53
2018-12-16T15:37:50.415Z,44.57
2018-12-16T15:40:19.758Z,41.00
2018-12-16T15:42:48.953Z,43.00
2018-12-16T15:45:18.086Z,61.17
2018-12-16T15:47:47.213Z,63.93
2018-12-16T15:50:16.335Z,71.07
2018-12-16T15:52:45.387Z,49.53
2018-12-16T15:55:14.525Z,49.33
2018-12-16T15:57:43.618Z,51.30
2018-12-16T16:00:13.169Z,45.13
2018-12-16T16:02:42.637Z,43.83
2018-12-16T16:05:11.666Z,42.80
2018-12-16T16:07:40.765Z,46.70
2018-12-16T16:10:10.179Z,43.27
2018-12-16T16:12:39.327Z,40.63
2018-12-16T16:15:08.788Z,48.10
2018-12-16T16:17:38.236Z,51.83
2018-12-16T16:20:07.579Z,70.47
2018-12-16T16:22:36.796Z,66.13
2018-12-16T16:25:06.641Z,53.07
2018-12-16T16:27:35.765Z,47.17
2018-12-16T16:30:06.107Z,46.33
2018-12-16T16:32:35.271Z,45.70
2018-12-16T16:35:04.533Z,41.23
2018-12-16T16:37:33.623Z,42.67
2018-12-16T16:40:03.064Z,44.03
2018-12-16T16:42:32.279Z,47.23
2018-12-16T16:45:01.320Z,46.50
2018-12-16T16:47:31.816Z,41.17
2018-12-16T16:50:00.928Z,44.40
2018-12-16T16:52:30.069Z,46.23
2018-12-16T16:55:00.078Z,44.93
2018-12-16T16:57:29.098Z,47.37
2018-12-16T16:59:58.134Z,51.47
2018-12-16T17:02:27.168Z,46.90
2018-12-16T17:04:56.169Z,65.47
2018-12-16T17:07:25.358Z,61.80
2018-12-16T17:09:54.591Z,55.73
2018-12-16T17:12:24.164Z,59.83
2018-12-16T17:14:54.283Z,50.40
2018-12-16T17:17:23.490Z,44.07
2018-12-16T17:19:52.592Z,44.17
2018-12-16T17:22:21.748Z,44.07
2018-12-16T17:24:50.800Z,48.73
2018-12-16T17:27:19.939Z,47.00
2018-12-16T17:29:49.334Z,46.27
2018-12-16T17:32:18.421Z,48.33
2018-12-16T17:34:47.476Z,44.20
2018-12-16T17:37:16.642Z,46.67
2018-12-16T17:39:45.869Z,48.03
2018-12-16T17:42:15.021Z,49.03
2018-12-16T17:44:44.086Z,44.97
2018-12-16T17:47:13.240Z,47.50
2018-12-16T17:49:42.365Z,46.67
2018-12-16T17:52:11.587Z,45.77
2018-12-16T17:54:41.821Z,46.27
2018-12-16T17:57:11.081Z,43.37
2018-12-16T17:59:40.525Z,43.10
2018-12-16T18:02:09.591Z,43.93
2018-12-16T18:04:38.725Z,43.43
2018-12-16T18:07:07.761Z,43.57
2018-12-16T18:09:37.012Z,43.87
2018-12-16T18:12:06.151Z,42.13
2018-12-16T18:14:35.333Z,44.70
2018-12-16T18:17:05.391Z,41.70
2018-12-16T18:19:34.560Z,43.17
2018-12-16T18:22:03.761Z,42.77
2018-12-16T18:24:32.734Z,44.33
2018-12-16T18:27:01.855Z,46.07
2018-12-16T18:29:31.045Z,47.17
2018-12-16T18:32:00.226Z,42.13
2018-12-16T18:34:29.385Z,44.07
2018-12-16T18:36:58.560Z,43.60
2018-12-16T18:39:27.620Z,45.83
2018-12-16T18:41:56.919Z,43.43
2018-12-16T18:44:26.022Z,44.17
2018-12-16T18:46:55.359Z,41.60
2018-12-16T18:49:24.417Z,57.70
2018-12-16T18:51:53.441Z,57.60
2018-12-16T18:54:22.594Z,61.73
2018-12-16T18:56:51.756Z,63.17
2018-12-16T18:59:20.804Z,75.10
2018-12-16T19:01:49.816Z,54.83
2018-12-16T19:04:21.036Z,51.00
2018-12-16T19:06:50.084Z,61.80
2018-12-16T19:09:19.187Z,53.70
2018-12-16T19:11:48.213Z,59.43
2018-12-16T19:14:17.566Z,59.93
2018-12-16T19:16:46.612Z,79.63
2018-12-16T19:19:16.018Z,61.70
2018-12-16T19:21:45.244Z,54.77
2018-12-16T19:24:14.280Z,46.30
2018-12-16T19:26:43.385Z,44.77
2018-12-16T19:29:13.385Z,43.83
2018-12-16T19:31:42.532Z,64.13
2018-12-16T19:34:11.745Z,63.93
2018-12-16T19:36:41.044Z,54.17
2018-12-16T19:39:10.206Z,50.03
2018-12-16T19:41:41.291Z,57.20
2018-12-16T19:44:10.460Z,50.63
2018-12-16T19:46:39.704Z,60.37
2018-12-16T19:49:08.950Z,73.93
2018-12-16T19:51:38.090Z,62.63
2018-12-16T19:54:07.099Z,52.10
2018-12-16T19:56:36.466Z,48.33
2018-12-16T19:59:05.841Z,46.73
2018-12-16T20:01:35.074Z,50.90
2018-12-16T20:04:09.325Z,56.20
2018-12-16T20:06:44.662Z,60.30
2018-12-16T20:09:13.835Z,51.03
2018-12-16T20:11:43.173Z,56.00
2018-12-16T20:14:12.215Z,50.00
2018-12-16T20:16:41.458Z,48.70
2018-12-16T20:19:10.701Z,50.30
2018-12-16T20:21:39.772Z,60.17
2018-12-16T20:24:08.971Z,74.73
2018-12-16T20:26:38.053Z,66.03
2018-12-16T20:29:07.216Z,50.93
2018-12-16T20:31:36.394Z,49.87
2018-12-16T20:34:05.545Z,42.30
2018-12-16T20:36:34.596Z,45.13
2018-12-16T20:39:04.638Z,43.50
2018-12-16T20:41:35.813Z,80.50
2018-12-16T20:44:04.873Z,75.70
2018-12-16T20:46:34.048Z,64.43
2018-12-16T20:49:03.110Z,51.03
2018-12-16T20:51:32.174Z,51.77
2018-12-16T20:54:01.333Z,55.83
2018-12-16T20:56:31.034Z,48.87
2018-12-16T20:59:00.082Z,49.73
2018-12-16T21:01:29.258Z,60.90
2018-12-16T21:03:58.301Z,53.23
2018-12-16T21:06:28.445Z,52.17
2018-12-16T21:08:57.561Z,39.47
2018-12-16T21:11:32.043Z,39.90
2018-12-16T21:14:06.405Z,41.40
2018-12-16T21:16:40.923Z,50.47
2018-12-16T21:19:10.146Z,57.87
2018-12-16T21:21:39.156Z,68.30
2018-12-16T21:24:08.275Z,59.27
2018-12-16T21:26:37.271Z,48.87
2018-12-16T21:29:06.516Z,46.97
2018-12-16T21:31:35.671Z,44.03
2018-12-16T21:34:05.429Z,46.97
2018-12-16T21:36:34.607Z,51.87
2018-12-16T21:39:04.946Z,58.93
2018-12-16T21:41:36.092Z,57.53
2018-12-16T21:44:05.141Z,55.97
2018-12-16T21:46:34.383Z,48.43
2018-12-16T21:49:03.582Z,46.77
2018-12-16T21:51:32.754Z,48.83
2018-12-16T21:54:01.919Z,50.50
2018-12-16T21:56:32.109Z,53.77
2018-12-16T21:59:02.550Z,53.40
2018-12-16T22:01:33.279Z,64.00
2018-12-16T22:04:02.364Z,50.03
2018-12-16T22:06:31.609Z,46.37
2018-12-16T22:09:00.858Z,43.70
2018-12-16T22:11:31.984Z,49.03
2018-12-16T22:14:01.053Z,52.53
2018-12-16T22:16:30.397Z,50.07
2018-12-16T22:18:59.697Z,47.57
2018-12-16T22:21:28.792Z,56.53
2018-12-16T22:23:57.845Z,51.23
2018-12-16T22:26:26.844Z,50.97
2018-12-16T22:28:56.152Z,45.83
2018-12-16T22:31:25.248Z,43.97
2018-12-16T22:33:54.803Z,43.23
2018-12-16T22:36:23.830Z,43.63
2018-12-16T22:38:52.877Z,44.87
2018-12-16T22:41:21.989Z,47.90
2018-12-16T22:43:51.613Z,49.27
2018-12-16T22:46:21.177Z,49.33
2018-12-16T22:48:50.428Z,47.23
2018-12-16T22:51:19.638Z,45.50
2018-12-16T22:53:48.731Z,45.07
2018-12-16T22:56:17.774Z,41.60
2018-12-16T22:58:46.871Z,47.33
2018-12-16T23:01:17.717Z,49.23
2018-12-16T23:03:48.340Z,47.53
2018-12-16T23:06:17.562Z,49.90
2018-12-16T23:08:46.681Z,49.07
2018-12-16T23:11:16.054Z,50.77
2018-12-16T23:13:45.410Z,43.53
2018-12-16T23:16:14.504Z,44.70
2018-12-16T23:18:43.886Z,45.30
2018-12-16T23:21:13.101Z,58.20
2018-12-16T23:23:42.221Z,56.20
2018-12-16T23:26:11.337Z,57.80
2018-12-16T23:28:40.773Z,56.13
2018-12-16T23:31:09.974Z,50.77
2018-12-16T23:33:39.048Z,47.77
2018-12-16T23:36:08.135Z,43.30
2018-12-16T23:38:37.207Z,46.10
2018-12-16T23:41:06.324Z,44.73
2018-12-16T23:43:35.344Z,36.63
2018-12-16T23:46:04.697Z,39.80
2018-12-16T23:48:33.792Z,33.00
2018-12-16T23:51:03.038Z,35.40
2018-12-16T23:53:33.972Z,36.03
2018-12-16T23:56:03.159Z,41.70
2018-12-16T23:58:32.170Z,40.43
